Terminal Aerodrome Forecast
Issued by NWS

Current Version | Previous Version | Text Only | Print | Product List | Glossary Off
Versions: 1 2 3 4 5 6 7 8 9 10 11 12 13 14 15 16 17 18 19

515
FTUS41 KPBZ 231732
TAFHLG
TAF
KHLG 231732Z 2318/2418 36008KT P6SM BKN040
     FM240000 01004KT P6SM SKC
     FM240600 00000KT 2SM BR SKC
     FM241300 26004KT P6SM SKC=

USA.gov is the U.S. government's official web portal to all federal, state and local government web resources and services.